Time;durP1;ratioP1;P1;durP2;ratioP2;P2;SDS_P1;SDS_P2;PMS_P1;PMS_P2;Temp;Humidity;BMP_temperature;BMP_pressure;BME280_temperature;BME280_humidity;BME280_pressure;Samples;Min_cycle;Max_cycle;Signal;HPM_P1;HPM_P2
2022/11/03 00:01:41;;;;;;;6.32;1.23;;;;;;;;;;5048457;28;20052;-62
2022/11/03 00:04:08;;;;;;;8.80;1.48;;;;;;;;;;5048468;28;20110;-62
2022/11/03 00:06:34;;;;;;;4.00;1.00;;;;;;;;;;5048418;28;20021;-62
2022/11/03 00:09:03;;;;;;;3.60;1.20;;;;;;;;;;5049137;28;20524;-62
2022/11/03 00:11:28;;;;;;;5.28;1.60;;;;;;;;;;5046567;28;20517;-62
2022/11/03 00:13:53;;;;;;;6.53;1.30;;;;;;;;;;5044911;28;20517;-62
2022/11/03 00:16:19;;;;;;;11.25;1.90;;;;;;;;;;5048237;28;20115;-62
2022/11/03 00:18:44;;;;;;;7.22;1.85;;;;;;;;;;5048061;28;20082;-62
2022/11/03 00:21:12;;;;;;;6.43;1.30;;;;;;;;;;5047295;28;20037;-62
2022/11/03 00:23:39;;;;;;;7.80;1.20;;;;;;;;;;5047444;28;20417;-62
2022/11/03 00:26:11;;;;;;;7.68;1.88;;;;;;;;;;5047704;28;20029;-62
2022/11/03 00:28:38;;;;;;;5.50;1.55;;;;;;;;;;5046058;28;20425;-62
2022/11/03 00:31:15;;;;;;;4.90;1.20;;;;;;;;;;5047913;28;20112;-62
2022/11/03 00:33:41;;;;;;;3.63;1.25;;;;;;;;;;5047469;28;20029;-62
2022/11/03 00:36:10;;;;;;;5.60;1.20;;;;;;;;;;5044618;28;20597;-62
2022/11/03 00:38:36;;;;;;;7.13;1.40;;;;;;;;;;5047385;28;20163;-62
2022/11/03 00:41:03;;;;;;;7.85;1.80;;;;;;;;;;5047525;28;20029;-62
2022/11/03 00:43:31;;;;;;;6.90;1.60;;;;;;;;;;5046355;28;20029;-62
2022/11/03 00:45:56;;;;;;;4.68;1.42;;;;;;;;;;5047277;28;20599;-63
2022/11/03 00:48:28;;;;;;;3.90;1.33;;;;;;;;;;5047769;28;20041;-62
2022/11/03 00:50:54;;;;;;;7.53;1.60;;;;;;;;;;5047131;28;20056;-62
2022/11/03 00:53:19;;;;;;;7.80;1.58;;;;;;;;;;5046635;28;20057;-62
2022/11/03 00:55:49;;;;;;;9.48;1.67;;;;;;;;;;5047511;28;20087;-62
2022/11/03 00:58:14;;;;;;;5.63;1.40;;;;;;;;;;5047379;28;20045;-62
2022/11/03 01:00:39;;;;;;;9.82;1.65;;;;;;;;;;5047273;28;20033;-62
2022/11/03 01:03:05;;;;;;;3.15;1.75;;;;;;;;;;5047395;28;20036;-62
2022/11/03 01:08:14;;;;;;;;;;;;;;;;;;5047461;28;20044;-62
2022/11/03 01:11:42;;;;;;;5.53;1.50;;;;;;;;;;5047318;28;19920;-62
2022/11/03 01:13:24;;;;;;;5.97;1.75;;;;;;;;;;5044911;28;21030;-62
2022/11/03 01:15:50;;;;;;;7.75;1.75;;;;;;;;;;5047202;28;20033;-62
2022/11/03 01:18:15;;;;;;;6.78;1.77;;;;;;;;;;5043537;28;20057;-62
2022/11/03 01:20:40;;;;;;;5.28;1.50;;;;;;;;;;5024014;28;20128;-62
2022/11/03 01:23:06;;;;;;;3.35;1.25;;;;;;;;;;5027030;28;20043;-62
2022/11/03 01:25:31;;;;;;;5.13;1.63;;;;;;;;;;5042982;28;20119;-62
2022/11/03 01:27:56;;;;;;;5.30;1.45;;;;;;;;;;5067021;28;20036;-62
2022/11/03 01:30:22;;;;;;;7.95;1.85;;;;;;;;;;5066355;28;20552;-62
2022/11/03 01:32:47;;;;;;;4.18;1.20;;;;;;;;;;5067322;28;20028;-62
2022/11/03 01:35:12;;;;;;;7.93;1.25;;;;;;;;;;5066739;28;20425;-62
2022/11/03 01:37:38;;;;;;;3.88;1.02;;;;;;;;;;5066799;28;20115;-62
2022/11/03 01:40:03;;;;;;;4.35;1.58;;;;;;;;;;5041367;28;20465;-62
2022/11/03 01:42:29;;;;;;;10.07;2.20;;;;;;;;;;5041413;28;20025;-62
2022/11/03 01:44:54;;;;;;;6.30;1.77;;;;;;;;;;5045736;28;20414;-62
2022/11/03 01:47:33;;;;;;;2.38;0.82;;;;;;;;;;5053113;28;20071;-62
2022/11/03 01:50:10;;;;;;;6.57;1.50;;;;;;;;;;5045885;28;20755;-62
2022/11/03 01:52:52;;;;;;;4.47;1.48;;;;;;;;;;5046346;28;20033;-62
2022/11/03 01:55:28;;;;;;;7.00;2.28;;;;;;;;;;5046741;28;20048;-62
2022/11/03 01:57:59;;;;;;;4.82;1.40;;;;;;;;;;5045946;28;20035;-62
2022/11/03 02:00:24;;;;;;;7.72;1.90;;;;;;;;;;5044550;28;20056;-62
2022/11/03 02:02:50;;;;;;;3.60;1.20;;;;;;;;;;5046982;28;20067;-62
2022/11/03 02:05:17;;;;;;;6.85;1.65;;;;;;;;;;5046186;28;20035;-62
2022/11/03 02:08:01;;;;;;;8.35;1.88;;;;;;;;;;5045396;28;20037;-62
2022/11/03 02:10:26;;;;;;;;;;;;;;;;;;5044795;28;20226;-62
2022/11/03 02:12:51;;;;;;;4.22;1.20;;;;;;;;;;5046438;28;19916;-63
2022/11/03 02:15:20;;;;;;;3.70;0.77;;;;;;;;;;5046516;28;20032;-62
2022/11/03 02:17:48;;;;;;;7.47;1.75;;;;;;;;;;5046678;28;20095;-63
2022/11/03 02:20:19;;;;;;;4.00;1.05;;;;;;;;;;5046324;28;20029;-62
2022/11/03 02:23:15;;;;;;;4.07;1.50;;;;;;;;;;5046208;28;20033;-62
2022/11/03 02:25:44;;;;;;;6.43;1.30;;;;;;;;;;5046571;28;20037;-62
2022/11/03 02:28:10;;;;;;;6.57;1.58;;;;;;;;;;5046023;28;20043;-62
2022/11/03 02:30:52;;;;;;;8.07;1.65;;;;;;;;;;5045857;28;20028;-62
2022/11/03 02:34:02;;;;;;;3.55;1.05;;;;;;;;;;5046230;28;20017;-62
2022/11/03 02:36:37;;;;;;;8.52;1.85;;;;;;;;;;5002127;28;20132;-62
2022/11/03 02:39:11;;;;;;;8.32;1.73;;;;;;;;;;5043079;28;20040;-62
2022/11/03 02:41:38;;;;;;;6.57;1.63;;;;;;;;;;5045644;28;20405;-62
2022/11/03 02:44:05;;;;;;;3.50;1.23;;;;;;;;;;5045806;28;20045;-62
2022/11/03 02:46:32;;;;;;;5.32;1.85;;;;;;;;;;5059919;28;20103;-62
2022/11/03 02:48:58;;;;;;;10.00;1.75;;;;;;;;;;5069011;28;20036;-62
2022/11/03 02:51:24;;;;;;;6.10;1.30;;;;;;;;;;5067547;28;20414;-62
2022/11/03 02:54:01;;;;;;;1.35;1.02;;;;;;;;;;5032701;28;20568;-62
2022/11/03 02:56:29;;;;;;;4.00;1.38;;;;;;;;;;5029526;28;20041;-62
2022/11/03 02:59:01;;;;;;;4.32;1.25;;;;;;;;;;5029290;28;20036;-62
2022/11/03 03:01:46;;;;;;;5.07;1.65;;;;;;;;;;5029768;28;20030;-62
2022/11/03 03:04:27;;;;;;;4.93;1.58;;;;;;;;;;5029339;28;20423;-62
2022/11/03 03:07:00;;;;;;;7.25;2.00;;;;;;;;;;5029570;28;20584;-62
2022/11/03 03:09:31;;;;;;;4.72;1.60;;;;;;;;;;5038588;28;20044;-62
2022/11/03 03:11:59;;;;;;;4.97;1.33;;;;;;;;;;5046874;28;20025;-62
2022/11/03 03:14:29;;;;;;;2.22;1.25;;;;;;;;;;5029894;28;20030;-62
2022/11/03 03:16:59;;;;;;;5.43;1.58;;;;;;;;;;5029703;28;20132;-62
2022/11/03 03:20:06;;;;;;;4.55;1.23;;;;;;;;;;5052781;28;20028;-62
2022/11/03 03:22:50;;;;;;;5.25;1.40;;;;;;;;;;5069453;28;20032;-62
2022/11/03 03:25:37;;;;;;;9.25;1.50;;;;;;;;;;5069351;28;20036;-63
2022/11/03 03:28:43;;;;;;;5.38;1.50;;;;;;;;;;5053771;28;20120;-62
2022/11/03 03:31:12;;;;;;;7.35;2.10;;;;;;;;;;5020436;28;20029;-62
2022/11/03 03:33:38;;;;;;;6.15;1.77;;;;;;;;;;5027503;28;20086;-62
2022/11/03 03:36:09;;;;;;;2.17;1.10;;;;;;;;;;5029713;28;20455;-62
2022/11/03 03:38:38;;;;;;;3.58;1.52;;;;;;;;;;5030030;28;20041;-62
2022/11/03 03:41:05;;;;;;;7.10;1.25;;;;;;;;;;5035371;28;20593;-62
2022/11/03 03:43:31;;;;;;;12.25;1.95;;;;;;;;;;5047561;28;20577;-62
2022/11/03 03:46:01;;;;;;;1.52;1.00;;;;;;;;;;5055994;28;20182;-62
2022/11/03 03:48:27;;;;;;;9.30;1.70;;;;;;;;;;5054251;28;20122;-62
2022/11/03 03:50:52;;;;;;;8.20;1.63;;;;;;;;;;5048415;28;20517;-62
2022/11/03 03:53:18;;;;;;;4.47;1.65;;;;;;;;;;5048430;28;20033;-62
2022/11/03 03:55:46;;;;;;;4.15;1.80;;;;;;;;;;5043950;28;20037;-62
2022/11/03 03:58:13;;;;;;;9.05;1.80;;;;;;;;;;5047312;28;20032;-62
2022/11/03 04:00:39;;;;;;;5.45;1.45;;;;;;;;;;5045129;28;20029;-62
2022/11/03 04:03:08;;;;;;;3.38;1.63;;;;;;;;;;5040928;28;20025;-62
2022/11/03 04:05:33;;;;;;;4.15;1.40;;;;;;;;;;5048469;28;20036;-62
2022/11/03 04:07:59;;;;;;;5.13;1.60;;;;;;;;;;5048092;28;20025;-63
2022/11/03 04:10:24;;;;;;;5.93;1.75;;;;;;;;;;5046922;28;20040;-62
2022/11/03 04:23:59;;;;;;;3.92;1.58;;;;;;;;;;5039794;28;20052;-62
2022/11/03 04:26:26;;;;;;;5.90;1.42;;;;;;;;;;5053631;28;20086;-62
2022/11/03 04:28:52;;;;;;;4.68;1.50;;;;;;;;;;5067701;28;20028;-62
2022/11/03 04:31:19;;;;;;;14.63;1.90;;;;;;;;;;5068098;28;20026;-62
2022/11/03 04:33:45;;;;;;;5.38;1.42;;;;;;;;;;5068467;28;20032;-62
2022/11/03 04:36:18;;;;;;;8.57;1.33;;;;;;;;;;5068021;28;20092;-62
2022/11/03 04:38:43;;;;;;;5.20;1.58;;;;;;;;;;5066109;28;20166;-62
2022/11/03 04:41:16;;;;;;;7.72;1.75;;;;;;;;;;5037526;28;20064;-62
2022/11/03 04:43:42;;;;;;;5.20;1.58;;;;;;;;;;5027733;28;20034;-62
2022/11/03 04:46:27;;;;;;;5.55;0.98;;;;;;;;;;5045140;28;20033;-62
2022/11/03 04:48:56;;;;;;;7.35;1.73;;;;;;;;;;5066315;28;20109;-62
2022/11/03 04:51:24;;;;;;;7.78;2.15;;;;;;;;;;5067874;28;20027;-62
2022/11/03 04:53:54;;;;;;;6.22;1.60;;;;;;;;;;5054841;28;20490;-62
2022/11/03 04:56:22;;;;;;;8.80;1.40;;;;;;;;;;5046218;28;20174;-62
2022/11/03 04:58:47;;;;;;;2.53;1.10;;;;;;;;;;5046670;28;20085;-62
2022/11/03 05:01:16;;;;;;;4.03;1.60;;;;;;;;;;5045907;28;20029;-62
2022/11/03 05:03:42;;;;;;;3.83;1.20;;;;;;;;;;5045684;28;20628;-62
2022/11/03 05:06:11;;;;;;;5.88;1.83;;;;;;;;;;5048041;28;20487;-62
2022/11/03 05:08:37;;;;;;;5.47;1.60;;;;;;;;;;5046536;28;20033;-62
2022/11/03 05:11:13;;;;;;;2.83;1.45;;;;;;;;;;5047302;28;20028;-62
2022/11/03 05:13:38;;;;;;;6.82;1.63;;;;;;;;;;5047018;28;20122;-62
2022/11/03 05:16:05;;;;;;;6.13;1.42;;;;;;;;;;5047172;28;20685;-62
2022/11/03 05:18:34;;;;;;;5.47;1.58;;;;;;;;;;5046709;28;20629;-62
2022/11/03 05:21:06;;;;;;;7.63;1.85;;;;;;;;;;5047562;28;20025;-62
2022/11/03 05:23:40;;;;;;;9.38;1.75;;;;;;;;;;5045208;28;20047;-62
2022/11/03 05:26:11;;;;;;;6.68;1.38;;;;;;;;;;5041698;28;20032;-62
2022/11/03 05:28:39;;;;;;;4.13;1.50;;;;;;;;;;5046259;28;20123;-62
2022/11/03 05:31:23;;;;;;;8.05;1.77;;;;;;;;;;5046995;28;20068;-62
2022/11/03 05:33:51;;;;;;;4.15;1.83;;;;;;;;;;5046850;28;20035;-62
2022/11/03 05:36:21;;;;;;;4.05;1.40;;;;;;;;;;5046201;28;20052;-62
2022/11/03 05:38:47;;;;;;;3.13;1.20;;;;;;;;;;5029649;28;20037;-62
2022/11/03 05:41:24;;;;;;;4.53;1.13;;;;;;;;;;5047014;28;20029;-62
2022/11/03 05:44:02;;;;;;;4.50;1.73;;;;;;;;;;5046364;28;20029;-62
2022/11/03 05:46:33;;;;;;;6.88;1.42;;;;;;;;;;5046371;28;20114;-62
2022/11/03 05:49:01;;;;;;;5.07;1.92;;;;;;;;;;5046402;28;20040;-62
2022/11/03 05:51:35;;;;;;;5.05;1.70;;;;;;;;;;5046719;28;20025;-62
2022/11/03 05:54:04;;;;;;;8.07;2.10;;;;;;;;;;5047017;28;20017;-62
2022/11/03 05:56:31;;;;;;;11.25;1.67;;;;;;;;;;5046110;28;20065;-62
2022/11/03 05:58:59;;;;;;;4.95;2.17;;;;;;;;;;5046729;28;20113;-62
2022/11/03 06:01:30;;;;;;;4.65;1.70;;;;;;;;;;5046643;28;20713;-62
2022/11/03 06:03:58;;;;;;;3.67;1.50;;;;;;;;;;5044756;28;20029;-62
2022/11/03 06:06:27;;;;;;;5.65;2.00;;;;;;;;;;5046550;28;20032;-62
2022/11/03 06:08:52;;;;;;;4.65;1.63;;;;;;;;;;5047135;28;20044;-62
2022/11/03 06:11:35;;;;;;;6.13;1.70;;;;;;;;;;5045499;28;20033;-62
2022/11/03 06:14:01;;;;;;;6.50;1.70;;;;;;;;;;5039881;28;20045;-62
2022/11/03 06:16:38;;;;;;;7.05;1.70;;;;;;;;;;5035316;28;20041;-62
2022/11/03 06:19:19;;;;;;;3.05;1.80;;;;;;;;;;5033811;28;20028;-62
2022/11/03 06:21:45;;;;;;;4.40;1.95;;;;;;;;;;5040273;28;20120;-62
2022/11/03 06:24:13;;;;;;;5.82;1.45;;;;;;;;;;5045024;28;20044;-62
2022/11/03 06:26:40;;;;;;;11.07;1.98;;;;;;;;;;5045750;28;20039;-62
2022/11/03 06:29:12;;;;;;;6.38;1.25;;;;;;;;;;5045942;28;20037;-62
2022/11/03 06:31:38;;;;;;;6.28;1.67;;;;;;;;;;5044840;28;20048;-62
2022/11/03 06:34:21;;;;;;;4.10;2.13;;;;;;;;;;5047009;28;20029;-62
2022/11/03 06:36:46;;;;;;;7.05;1.73;;;;;;;;;;5047112;28;20414;-62
2022/11/03 06:39:20;;;;;;;8.57;1.85;;;;;;;;;;5041206;28;20579;-62
2022/11/03 06:41:45;;;;;;;;;;;;;;;;;;5047338;28;20565;-62
2022/11/03 06:44:39;;;;;;;6.07;2.17;;;;;;;;;;5046649;28;19923;-62
2022/11/03 06:47:17;;;;;;;5.97;1.88;;;;;;;;;;5062015;28;20037;-62
2022/11/03 06:49:42;;;;;;;6.93;1.30;;;;;;;;;;5065171;28;20064;-62
2022/11/03 06:52:22;;;;;;;10.05;1.90;;;;;;;;;;5067284;28;20117;-62
2022/11/03 06:54:52;;;;;;;2.83;1.67;;;;;;;;;;5066488;28;20818;-62
2022/11/03 06:57:18;;;;;;;3.97;1.38;;;;;;;;;;5066232;28;20029;-62
2022/11/03 06:59:43;;;;;;;11.10;1.88;;;;;;;;;;5066488;28;20039;-62
2022/11/03 07:02:38;;;;;;;5.47;1.80;;;;;;;;;;5066315;28;20086;-62
2022/11/03 07:05:16;;;;;;;10.65;2.15;;;;;;;;;;5066717;28;20055;-62
2022/11/03 07:07:42;;;;;;;10.32;1.90;;;;;;;;;;5056876;28;20041;-63
2022/11/03 07:10:07;;;;;;;6.18;1.65;;;;;;;;;;5045850;28;20050;-62
2022/11/03 07:12:33;;;;;;;3.67;1.55;;;;;;;;;;5046576;28;20421;-62
2022/11/03 07:14:58;;;;;;;3.88;1.25;;;;;;;;;;5046229;28;20063;-62
2022/11/03 07:17:24;;;;;;;10.55;1.80;;;;;;;;;;5045104;28;20636;-62
2022/11/03 07:19:49;;;;;;;1.75;1.45;;;;;;;;;;5044833;28;20025;-62
2022/11/03 07:22:20;;;;;;;6.75;2.03;;;;;;;;;;5046535;28;20025;-63
2022/11/03 07:24:47;;;;;;;2.72;1.25;;;;;;;;;;5045921;28;20060;-62
2022/11/03 07:27:15;;;;;;;5.28;1.80;;;;;;;;;;5039293;28;20113;-62
2022/11/03 07:29:42;;;;;;;2.50;1.08;;;;;;;;;;5042781;28;20091;-62
2022/11/03 07:32:15;;;;;;;2.65;1.27;;;;;;;;;;5047389;28;20112;-62
2022/11/03 07:34:40;;;;;;;;;;;;;;;;;;5049893;28;20017;-62
2022/11/03 07:37:10;;;;;;;4.80;1.80;;;;;;;;;;5050404;28;20374;-62
2022/11/03 07:39:37;;;;;;;5.38;2.25;;;;;;;;;;5049226;28;20102;-62
2022/11/03 07:42:14;;;;;;;5.82;1.60;;;;;;;;;;5049372;28;20124;-62
2022/11/03 07:44:39;;;;;;;8.82;1.98;;;;;;;;;;5049630;28;20035;-62
2022/11/03 07:47:11;;;;;;;3.70;1.70;;;;;;;;;;5048000;28;20037;-62
2022/11/03 07:49:36;;;;;;;5.00;1.45;;;;;;;;;;5049746;28;20024;-62
2022/11/03 07:52:10;;;;;;;8.02;1.75;;;;;;;;;;5048315;28;20684;-62
2022/11/03 07:54:35;;;;;;;1.67;1.17;;;;;;;;;;5040758;28;20552;-62
2022/11/03 07:57:22;;;;;;;4.78;1.05;;;;;;;;;;5039597;28;20049;-62
2022/11/03 07:59:54;;;;;;;3.40;1.20;;;;;;;;;;5024390;28;20041;-62
2022/11/03 08:02:37;;;;;;;2.63;1.30;;;;;;;;;;5043086;28;20041;-62
2022/11/03 08:05:03;;;;;;;6.25;1.10;;;;;;;;;;5032063;28;20044;-62
2022/11/03 08:07:29;;;;;;;6.95;1.60;;;;;;;;;;5037394;28;20025;-62
2022/11/03 08:09:54;;;;;;;2.65;0.90;;;;;;;;;;5047475;28;20017;-62
2022/11/03 08:12:20;;;;;;;2.53;1.48;;;;;;;;;;5045961;28;20052;-62
2022/11/03 08:14:45;;;;;;;4.18;1.50;;;;;;;;;;5047267;28;20041;-62
2022/11/03 08:17:11;;;;;;;6.53;2.17;;;;;;;;;;5043237;28;20384;-62
2022/11/03 08:19:36;;;;;;;3.53;1.10;;;;;;;;;;5047154;28;20029;-62
2022/11/03 08:22:02;;;;;;;4.25;1.58;;;;;;;;;;5047506;28;20025;-62
2022/11/03 08:24:27;;;;;;;2.88;1.27;;;;;;;;;;5049240;28;20098;-62
2022/11/03 08:26:52;;;;;;;2.95;1.55;;;;;;;;;;5044590;28;20043;-62
2022/11/03 08:29:18;;;;;;;3.05;1.23;;;;;;;;;;5042020;28;20037;-62
2022/11/03 08:31:43;;;;;;;2.65;0.95;;;;;;;;;;5049050;28;20028;-62
2022/11/03 08:34:09;;;;;;;2.60;1.10;;;;;;;;;;5048373;28;20021;-62
2022/11/03 08:36:34;;;;;;;6.28;1.95;;;;;;;;;;5042794;28;20115;-62
2022/11/03 08:39:00;;;;;;;2.30;1.60;;;;;;;;;;5038589;28;20119;-62
2022/11/03 08:41:25;;;;;;;4.40;1.50;;;;;;;;;;5037193;28;20051;-61
2022/11/03 08:43:50;;;;;;;6.40;1.80;;;;;;;;;;5045613;28;20051;-61
2022/11/03 08:46:16;;;;;;;7.80;2.17;;;;;;;;;;5053948;28;20249;-62
2022/11/03 08:48:41;;;;;;;1.65;1.10;;;;;;;;;;5045964;28;20036;-61
2022/11/03 08:51:12;;;;;;;3.30;1.52;;;;;;;;;;5044111;28;20045;-62
2022/11/03 08:53:38;;;;;;;2.85;1.60;;;;;;;;;;5028600;28;20506;-61
2022/11/03 08:56:04;;;;;;;9.23;2.10;;;;;;;;;;5028485;28;20059;-62
2022/11/03 08:58:29;;;;;;;9.32;1.80;;;;;;;;;;5028984;28;20033;-62
2022/11/03 09:00:55;;;;;;;8.25;2.53;;;;;;;;;;5040832;28;20052;-62
2022/11/03 09:03:20;;;;;;;8.13;1.65;;;;;;;;;;5045017;28;20037;-62
2022/11/03 09:05:45;;;;;;;10.63;3.83;;;;;;;;;;5039562;28;20041;-61
2022/11/03 09:08:11;;;;;;;4.32;1.88;;;;;;;;;;5044131;28;20032;-61
2022/11/03 09:10:36;;;;;;;7.85;1.50;;;;;;;;;;5031242;28;20036;-62
2022/11/03 09:13:01;;;;;;;5.63;1.50;;;;;;;;;;5028795;28;20029;-62
2022/11/03 09:15:28;;;;;;;2.90;1.27;;;;;;;;;;5027433;28;20175;-62
2022/11/03 09:17:53;;;;;;;11.60;2.08;;;;;;;;;;5037460;28;20063;-62
2022/11/03 09:20:19;;;;;;;10.75;2.20;;;;;;;;;;5047952;28;20099;-61
2022/11/03 09:22:45;;;;;;;7.10;1.90;;;;;;;;;;5047630;28;20036;-61
2022/11/03 09:25:10;;;;;;;2.80;1.30;;;;;;;;;;5048425;28;20025;-62
2022/11/03 09:27:35;;;;;;;4.68;1.80;;;;;;;;;;5047501;28;20126;-61
2022/11/03 09:30:03;;;;;;;9.50;2.90;;;;;;;;;;5047394;28;20178;-62
2022/11/03 09:32:28;;;;;;;3.33;1.73;;;;;;;;;;5047685;28;20037;-62
2022/11/03 09:34:54;;;;;;;5.80;1.42;;;;;;;;;;5046928;28;20342;-62
2022/11/03 09:37:19;;;;;;;5.93;2.25;;;;;;;;;;5034433;28;20414;-62
2022/11/03 09:39:44;;;;;;;1.73;1.10;;;;;;;;;;5038500;28;20056;-62
2022/11/03 09:42:11;;;;;;;4.80;1.20;;;;;;;;;;5047358;28;20043;-62
2022/11/03 09:44:37;;;;;;;2.80;1.10;;;;;;;;;;5047771;28;20123;-62
2022/11/03 09:47:03;;;;;;;6.90;2.20;;;;;;;;;;5047092;28;20648;-62
2022/11/03 09:49:33;;;;;;;2.90;1.30;;;;;;;;;;5047034;28;20116;-61
2022/11/03 09:52:01;;;;;;;2.53;1.30;;;;;;;;;;5045431;28;20025;-62
2022/11/03 09:54:28;;;;;;;1.70;1.00;;;;;;;;;;5044712;28;20862;-62
2022/11/03 09:56:57;;;;;;;3.35;1.30;;;;;;;;;;5038310;28;20083;-62
2022/11/03 09:59:23;;;;;;;3.40;0.80;;;;;;;;;;5026024;28;20037;-62
2022/11/03 10:01:52;;;;;;;3.38;1.33;;;;;;;;;;5027084;28;20025;-61
2022/11/03 10:04:23;;;;;;;5.22;1.83;;;;;;;;;;5035784;28;20021;-62
2022/11/03 10:06:49;;;;;;;4.85;1.20;;;;;;;;;;5045424;28;20037;-62
2022/11/03 10:09:16;;;;;;;2.63;1.33;;;;;;;;;;5046411;28;20025;-62
2022/11/03 10:11:43;;;;;;;3.97;1.23;;;;;;;;;;5036120;28;20566;-62
2022/11/03 10:14:12;;;;;;;2.40;0.80;;;;;;;;;;5044606;28;20028;-62
2022/11/03 10:16:39;;;;;;;1.88;0.95;;;;;;;;;;5046615;28;20031;-62
2022/11/03 10:19:08;;;;;;;4.47;1.52;;;;;;;;;;5041221;28;20017;-62
2022/11/03 10:21:34;;;;;;;4.60;1.38;;;;;;;;;;5046442;28;20040;-61
2022/11/03 10:23:59;;;;;;;4.00;1.35;;;;;;;;;;5044844;28;20045;-62
2022/11/03 10:26:25;;;;;;;4.10;1.95;;;;;;;;;;5049133;28;20044;-62
2022/11/03 10:29:04;;;;;;;1.67;0.90;;;;;;;;;;5042628;28;20040;-62
2022/11/03 10:31:38;;;;;;;1.80;1.27;;;;;;;;;;5066542;28;20107;-61
2022/11/03 10:34:05;;;;;;;4.72;2.17;;;;;;;;;;5067128;28;20013;-62
2022/11/03 10:36:32;;;;;;;2.00;0.95;;;;;;;;;;5052091;28;20120;-62
2022/11/03 10:39:00;;;;;;;1.90;0.98;;;;;;;;;;5046171;28;20040;-61
2022/11/03 10:41:30;;;;;;;1.45;1.17;;;;;;;;;;5046644;28;20033;-62
2022/11/03 10:44:04;;;;;;;5.15;1.23;;;;;;;;;;5046547;28;20052;-62
2022/11/03 10:46:30;;;;;;;3.40;1.35;;;;;;;;;;5045884;28;20049;-62
2022/11/03 10:49:09;;;;;;;3.15;1.40;;;;;;;;;;5045100;28;20435;-62
2022/11/03 10:51:36;;;;;;;2.40;0.75;;;;;;;;;;5026893;28;20042;-62
2022/11/03 10:54:03;;;;;;;2.85;1.73;;;;;;;;;;5026306;28;20113;-62
2022/11/03 10:56:29;;;;;;;4.78;1.65;;;;;;;;;;5025110;28;20045;-62
2022/11/03 10:58:56;;;;;;;1.80;1.00;;;;;;;;;;5051308;28;20165;-62
2022/11/03 11:01:22;;;;;;;3.08;1.35;;;;;;;;;;5041150;28;20083;-62
2022/11/03 11:03:47;;;;;;;3.20;1.20;;;;;;;;;;5046260;28;20048;-61
2022/11/03 11:06:25;;;;;;;2.50;0.90;;;;;;;;;;5046454;28;20475;-62
2022/11/03 11:08:53;;;;;;;1.10;0.85;;;;;;;;;;5030388;28;20116;-62
2022/11/03 11:11:20;;;;;;;3.35;1.10;;;;;;;;;;5050195;28;20053;-62
2022/11/03 11:14:24;;;;;;;2.80;1.35;;;;;;;;;;5029152;28;20030;-62
2022/11/03 11:16:57;;;;;;;1.85;0.80;;;;;;;;;;5028490;28;20147;-62
2022/11/03 11:19:25;;;;;;;4.25;0.95;;;;;;;;;;5034587;28;20036;-62
2022/11/03 11:21:53;;;;;;;1.52;0.80;;;;;;;;;;5049639;28;20040;-62
2022/11/03 11:24:43;;;;;;;2.05;1.27;;;;;;;;;;5048537;28;20029;-62
2022/11/03 11:27:30;;;;;;;4.88;1.33;;;;;;;;;;5048419;28;20055;-61
2022/11/03 11:29:57;;;;;;;3.15;1.70;;;;;;;;;;5048398;28;20040;-61
2022/11/03 11:32:40;;;;;;;3.28;1.15;;;;;;;;;;5049594;28;20036;-61
2022/11/03 11:35:07;;;;;;;5.20;1.20;;;;;;;;;;5049775;28;20029;-61
2022/11/03 11:37:34;;;;;;;4.55;1.45;;;;;;;;;;5037360;28;20036;-61
2022/11/03 11:40:00;;;;;;;3.13;1.20;;;;;;;;;;5036529;28;20024;-61
2022/11/03 11:42:26;;;;;;;1.95;1.08;;;;;;;;;;5034343;28;20097;-61
2022/11/03 11:44:55;;;;;;;2.75;1.20;;;;;;;;;;5034970;28;20060;-61
2022/11/03 11:47:26;;;;;;;2.03;1.05;;;;;;;;;;5046708;28;20534;-62
2022/11/03 11:50:04;;;;;;;2.50;1.30;;;;;;;;;;5040866;28;20541;-61
2022/11/03 11:52:45;;;;;;;4.78;1.15;;;;;;;;;;5047993;28;20071;-62
2022/11/03 11:55:38;;;;;;;1.92;1.20;;;;;;;;;;5048676;28;20017;-61
2022/11/03 11:58:11;;;;;;;1.05;0.82;;;;;;;;;;5037310;28;20403;-61
2022/11/03 12:00:36;;;;;;;3.80;1.10;;;;;;;;;;5047509;28;20049;-62
2022/11/03 12:03:04;;;;;;;3.80;1.75;;;;;;;;;;5045920;28;20052;-61
2022/11/03 12:05:32;;;;;;;2.17;1.15;;;;;;;;;;5039620;28;20426;-62
2022/11/03 12:07:57;;;;;;;1.40;0.90;;;;;;;;;;5045150;28;20021;-61
2022/11/03 12:10:25;;;;;;;2.55;1.30;;;;;;;;;;5017669;28;20406;-61
2022/11/03 12:12:51;;;;;;;2.50;1.60;;;;;;;;;;5044145;28;20025;-61
2022/11/03 12:15:54;;;;;;;3.63;1.02;;;;;;;;;;5047335;28;20044;-61
2022/11/03 12:18:32;;;;;;;2.58;1.10;;;;;;;;;;5047908;28;20037;-61
2022/11/03 12:20:57;;;;;;;2.88;1.50;;;;;;;;;;5037855;28;20586;-62
2022/11/03 12:23:45;;;;;;;3.17;1.35;;;;;;;;;;5048441;28;20053;-61
2022/11/03 12:26:17;;;;;;;3.58;1.40;;;;;;;;;;5047764;28;20037;-61
2022/11/03 12:28:43;;;;;;;2.77;1.37;;;;;;;;;;5048371;28;20045;-61
2022/11/03 12:31:09;;;;;;;2.30;1.30;;;;;;;;;;5042859;28;20017;-62
2022/11/03 12:33:34;;;;;;;2.00;1.02;;;;;;;;;;5034689;28;20040;-62
2022/11/03 12:35:59;;;;;;;1.90;1.17;;;;;;;;;;5033313;28;20037;-61
2022/11/03 12:38:25;;;;;;;1.30;1.20;;;;;;;;;;5036785;28;20043;-64
2022/11/03 12:40:50;;;;;;;7.43;2.03;;;;;;;;;;5036053;28;20044;-64
2022/11/03 12:43:16;;;;;;;3.15;1.70;;;;;;;;;;5048989;28;20036;-64
2022/11/03 12:45:41;;;;;;;7.40;1.92;;;;;;;;;;5053477;28;20174;-64
2022/11/03 12:48:07;;;;;;;3.75;1.20;;;;;;;;;;5068621;28;20041;-64
2022/11/03 12:50:33;;;;;;;5.63;1.80;;;;;;;;;;5046273;28;20050;-63
2022/11/03 12:52:58;;;;;;;3.50;1.90;;;;;;;;;;5040939;28;20033;-63
2022/11/03 12:55:23;;;;;;;6.53;1.58;;;;;;;;;;5046211;28;20029;-64
2022/11/03 12:57:48;;;;;;;4.20;1.60;;;;;;;;;;5047474;28;20013;-64
2022/11/03 13:00:14;;;;;;;4.35;1.63;;;;;;;;;;5041728;28;20033;-64
2022/11/03 13:02:39;;;;;;;3.90;1.70;;;;;;;;;;5047187;28;20028;-64
2022/11/03 13:05:05;;;;;;;2.45;1.30;;;;;;;;;;5046919;28;20052;-65
2022/11/03 13:07:31;;;;;;;7.43;1.92;;;;;;;;;;5047347;28;20026;-64
2022/11/03 13:09:56;;;;;;;2.17;1.15;;;;;;;;;;5032141;28;20032;-63
2022/11/03 13:12:31;;;;;;;4.15;1.73;;;;;;;;;;5043275;28;20043;-62
2022/11/03 13:14:57;;;;;;;6.28;1.50;;;;;;;;;;5035872;28;20025;-77
2022/11/03 13:17:23;;;;;;;2.42;1.25;;;;;;;;;;5028591;28;20033;-69
2022/11/03 13:19:48;;;;;;;4.82;1.90;;;;;;;;;;5033085;28;20033;-70
2022/11/03 13:22:13;;;;;;;2.15;1.23;;;;;;;;;;5046424;28;20020;-67
2022/11/03 13:24:38;;;;;;;1.27;1.17;;;;;;;;;;5047039;28;20148;-67
2022/11/03 13:27:04;;;;;;;5.82;2.05;;;;;;;;;;5047885;28;20041;-70
2022/11/03 13:29:29;;;;;;;9.93;2.63;;;;;;;;;;5044693;28;20041;-69
2022/11/03 13:31:54;;;;;;;3.92;1.77;;;;;;;;;;5046122;28;20657;-69
2022/11/03 13:34:20;;;;;;;2.92;1.48;;;;;;;;;;5047521;28;20592;-69
2022/11/03 13:36:45;;;;;;;6.28;1.85;;;;;;;;;;5047087;28;20036;-68
2022/11/03 13:39:11;;;;;;;6.68;1.92;;;;;;;;;;5047619;28;20021;-69
2022/11/03 13:41:37;;;;;;;2.45;1.40;;;;;;;;;;5042944;28;20021;-69
2022/11/03 13:44:02;;;;;;;4.60;1.52;;;;;;;;;;5031036;28;20135;-69
2022/11/03 13:46:27;;;;;;;4.45;1.63;;;;;;;;;;5042146;28;20464;-68
2022/11/03 13:48:53;;;;;;;3.60;2.00;;;;;;;;;;5026061;28;20021;-69
2022/11/03 13:51:20;;;;;;;4.97;1.65;;;;;;;;;;5028599;28;20481;-69
2022/11/03 13:53:45;;;;;;;2.72;1.58;;;;;;;;;;5035358;28;20123;-69
2022/11/03 13:56:10;;;;;;;3.42;1.58;;;;;;;;;;5027837;28;20180;-69
2022/11/03 13:58:36;;;;;;;2.42;1.60;;;;;;;;;;5025666;28;20026;-69
2022/11/03 14:01:01;;;;;;;5.95;2.05;;;;;;;;;;5028102;28;20064;-68
2022/11/03 14:03:27;;;;;;;4.07;1.67;;;;;;;;;;5027465;28;20033;-69
2022/11/03 14:05:52;;;;;;;2.95;1.52;;;;;;;;;;5041249;28;20045;-69
2022/11/03 14:08:17;;;;;;;3.58;1.65;;;;;;;;;;5033790;28;20033;-69
2022/11/03 14:10:43;;;;;;;3.88;1.40;;;;;;;;;;5011803;28;20071;-69
2022/11/03 14:13:08;;;;;;;3.20;1.60;;;;;;;;;;5002687;28;20029;-69
2022/11/03 14:15:33;;;;;;;2.92;1.55;;;;;;;;;;5043618;28;20029;-69
2022/11/03 14:17:59;;;;;;;2.25;1.38;;;;;;;;;;5032583;28;20038;-68
2022/11/03 14:20:24;;;;;;;1.20;1.10;;;;;;;;;;5026138;28;20038;-68
2022/11/03 14:22:49;;;;;;;3.38;1.30;;;;;;;;;;5027486;28;20065;-65
2022/11/03 14:25:15;;;;;;;3.00;1.90;;;;;;;;;;5027167;28;20090;-66
2022/11/03 14:27:40;;;;;;;2.80;1.90;;;;;;;;;;5027011;28;20076;-66
2022/11/03 14:30:06;;;;;;;4.35;1.50;;;;;;;;;;5026754;28;20037;-65
2022/11/03 14:32:31;;;;;;;3.22;1.55;;;;;;;;;;5025574;28;20036;-65
2022/11/03 14:34:56;;;;;;;6.38;1.33;;;;;;;;;;5050854;28;20570;-65
2022/11/03 14:37:24;;;;;;;2.05;1.60;;;;;;;;;;5067342;28;20024;-65
2022/11/03 14:39:49;;;;;;;2.38;1.75;;;;;;;;;;5054553;28;20116;-65
2022/11/03 14:42:15;;;;;;;3.67;1.10;;;;;;;;;;5045995;28;20040;-65
2022/11/03 14:44:41;;;;;;;3.60;1.63;;;;;;;;;;5032819;28;20037;-65
2022/11/03 14:47:09;;;;;;;1.70;1.27;;;;;;;;;;5064521;28;20115;-65
2022/11/03 14:49:35;;;;;;;2.65;1.67;;;;;;;;;;5070370;28;20562;-66
2022/11/03 14:52:01;;;;;;;2.97;1.80;;;;;;;;;;5070360;28;20024;-66
2022/11/03 14:54:28;;;;;;;3.63;2.00;;;;;;;;;;5070858;28;20035;-65
2022/11/03 14:56:53;;;;;;;2.10;1.48;;;;;;;;;;5047462;28;20033;-64
2022/11/03 14:59:20;;;;;;;3.40;1.80;;;;;;;;;;5048926;28;20036;-72
2022/11/03 15:01:46;;;;;;;5.85;2.25;;;;;;;;;;5047778;28;20703;-71
2022/11/03 15:04:12;;;;;;;2.33;1.42;;;;;;;;;;5040605;28;20158;-71
2022/11/03 15:06:38;;;;;;;3.55;1.73;;;;;;;;;;5039470;28;20128;-71
2022/11/03 15:09:03;;;;;;;2.42;1.85;;;;;;;;;;5041754;28;20182;-71